RHI weather

Rhinelander Oneida County Airport
Rhinelander, Wisconsin, United States

Public forecast

Using degrees Fahrenheit for public forecast. Weather courtesy of forecast.io.

Current aviation weather report (METAR) for Rhinelander Oneida County Airport

Retrieved 2019/10/21 16:36 UTC (0 seconds ago):

KRHI 211636Z AUTO 10015G32KT 2 1/2SM -RA BR OVC018 09/08 A2949 RMK AO2 PK WND 10032/1602 VIS 1V5 RAB07 P0004 T00940078

Aviation forecast (TAF) for Rhinelander Oneida County Airport

Retrieved 2019/10/21 12:22 UTC (4 hours ago):

TAF KRHI 211120Z 2112/2212 10009G16KT P6SM SCT020 OVC035 WS020/13040KT TEMPO 2112/2113 -SHRA BKN020 FM211300 11011G22KT 5SM SHRA BR OVC011 WS020/12040KT FM211600 11011G23KT 2SM +SHRA BR OVC005 WS020/12045KT FM212100 14008G19KT 5SM -SHRA BR OVC015 FM220000 16009G15KT P6SM SCT020 OVC035 WS020/19035KT TEMPO 2203/2206 4SM -SHRA BR BKN018 FM220600 17008G15KT 4SM -SHRA OVC017 FM220900 17008G15KT 3SM -SHRA OVC006